createdAt,value
2018-06-17T00:00:46.267Z,16.70
2018-06-17T00:03:14.964Z,16.70
2018-06-17T00:05:45.323Z,16.60
2018-06-17T00:08:13.989Z,16.60
2018-06-17T00:10:42.671Z,16.60
2018-06-17T00:13:11.323Z,16.60
2018-06-17T00:15:39.941Z,16.60
2018-06-17T00:18:08.607Z,16.60
2018-06-17T00:20:37.281Z,16.70
2018-06-17T00:23:06.590Z,16.70
2018-06-17T00:25:35.228Z,16.70
2018-06-17T00:28:03.896Z,16.70
2018-06-17T00:30:32.562Z,16.70
2018-06-17T00:33:01.306Z,16.70
2018-06-17T00:35:29.956Z,16.70
2018-06-17T00:37:58.619Z,16.70
2018-06-17T00:40:27.252Z,16.60
2018-06-17T00:42:55.896Z,16.60
2018-06-17T00:45:24.526Z,16.60
2018-06-17T00:47:53.212Z,16.60
2018-06-17T00:52:50.205Z,16.60
2018-06-17T00:55:18.822Z,16.60
2018-06-17T00:57:52.377Z,16.60
2018-06-17T01:00:22.504Z,16.60
2018-06-17T01:02:51.188Z,16.60
2018-06-17T01:05:19.880Z,16.50
2018-06-17T01:07:49.200Z,16.50
2018-06-17T01:10:17.856Z,16.50
2018-06-17T01:12:46.520Z,16.50
2018-06-17T01:15:15.180Z,16.50
2018-06-17T01:17:45.046Z,16.50
2018-06-17T01:22:41.992Z,16.50
2018-06-17T01:25:10.623Z,16.40
2018-06-17T01:27:39.951Z,16.50
2018-06-17T01:30:08.611Z,16.40
2018-06-17T01:32:37.314Z,16.40
2018-06-17T01:35:06.035Z,16.40
2018-06-17T01:37:34.643Z,16.40
2018-06-17T01:40:03.329Z,16.40
2018-06-17T01:42:31.967Z,16.40
2018-06-17T01:47:28.960Z,16.40
2018-06-17T01:49:57.620Z,16.40
2018-06-17T01:52:26.224Z,16.40
2018-06-17T01:54:54.834Z,16.30
2018-06-17T01:57:23.448Z,16.30
2018-06-17T01:59:52.084Z,16.40
2018-06-17T02:02:20.694Z,16.30
2018-06-17T02:04:54.692Z,16.40
2018-06-17T02:07:28.661Z,16.40
2018-06-17T02:10:02.595Z,16.40
2018-06-17T02:12:31.214Z,16.40
2018-06-17T02:15:00.187Z,16.40
2018-06-17T02:17:29.145Z,16.40
2018-06-17T02:19:57.805Z,16.30
2018-06-17T02:22:26.439Z,16.30
2018-06-17T02:24:55.105Z,16.20
2018-06-17T02:27:23.771Z,16.20
2018-06-17T02:29:52.401Z,16.20
2018-06-17T02:32:21.125Z,16.10
2018-06-17T02:34:49.806Z,16.10
2018-06-17T02:37:18.444Z,16.00
2018-06-17T02:39:47.019Z,16.00
2018-06-17T02:42:15.661Z,15.90
2018-06-17T02:44:44.276Z,15.90
2018-06-17T02:47:18.203Z,15.90
2018-06-17T02:49:48.458Z,15.90
2018-06-17T02:52:22.343Z,15.90
2018-06-17T02:54:51.000Z,15.90
2018-06-17T02:57:20.383Z,15.80
2018-06-17T02:59:49.036Z,15.80
2018-06-17T03:02:17.687Z,15.90
2018-06-17T03:04:46.351Z,15.80
2018-06-17T03:07:14.984Z,15.90
2018-06-17T03:09:43.639Z,15.90
2018-06-17T03:12:12.280Z,15.90
2018-06-17T03:14:40.905Z,16.00
2018-06-17T03:17:09.538Z,16.00
2018-06-17T03:19:38.176Z,16.00
2018-06-17T03:22:06.936Z,16.00
2018-06-17T03:24:40.919Z,16.00
2018-06-17T03:27:14.903Z,16.00
2018-06-17T03:29:48.908Z,16.00
2018-06-17T03:32:22.891Z,16.00
2018-06-17T03:34:56.824Z,16.00
2018-06-17T03:37:26.333Z,15.90
2018-06-17T03:39:55.041Z,15.90
2018-06-17T03:42:23.665Z,15.80
2018-06-17T03:44:52.835Z,15.80
2018-06-17T03:47:21.416Z,15.80
2018-06-17T03:49:50.006Z,15.70
2018-06-17T03:52:18.595Z,15.70
2018-06-17T03:54:47.210Z,15.70
2018-06-17T03:57:15.829Z,15.70
2018-06-17T03:59:44.438Z,15.70
2018-06-17T04:02:13.146Z,15.70
2018-06-17T04:04:47.086Z,15.70
2018-06-17T04:07:15.715Z,15.70
2018-06-17T04:09:44.313Z,15.70
2018-06-17T04:12:13.025Z,15.70
2018-06-17T04:14:41.649Z,15.80
2018-06-17T04:17:14.914Z,15.80
2018-06-17T04:19:45.196Z,15.80
2018-06-17T04:22:14.098Z,15.90
2018-06-17T04:24:42.721Z,16.00
2018-06-17T04:27:11.359Z,16.00
2018-06-17T04:29:40.053Z,16.00
2018-06-17T04:32:08.680Z,15.90
2018-06-17T04:34:37.263Z,15.90
2018-06-17T04:37:06.180Z,16.00
2018-06-17T04:39:34.873Z,16.00
2018-06-17T04:42:03.532Z,16.00
2018-06-17T04:44:32.148Z,16.00
2018-06-17T04:47:00.786Z,16.10
2018-06-17T04:49:29.404Z,16.10
2018-06-17T04:51:58.086Z,16.10
2018-06-17T04:54:26.784Z,16.10
2018-06-17T04:56:55.361Z,16.10
2018-06-17T04:59:24.041Z,16.20
2018-06-17T05:01:52.651Z,16.20
2018-06-17T05:04:21.351Z,16.20
2018-06-17T05:06:50.061Z,16.30
2018-06-17T05:09:18.675Z,16.20
2018-06-17T05:11:47.398Z,16.30
2018-06-17T05:14:15.996Z,16.30
2018-06-17T05:16:44.705Z,16.30
2018-06-17T05:19:13.357Z,16.30
2018-06-17T05:21:41.986Z,16.40
2018-06-17T05:24:10.589Z,16.40
2018-06-17T05:26:39.316Z,16.40
2018-06-17T05:29:07.998Z,16.40
2018-06-17T05:31:36.646Z,16.60
2018-06-17T05:34:05.383Z,16.70
2018-06-17T05:36:34.549Z,16.80
2018-06-17T05:39:03.461Z,16.90
2018-06-17T05:41:32.107Z,17.00
2018-06-17T05:44:00.784Z,16.90
2018-06-17T05:46:29.427Z,17.00
2018-06-17T05:48:58.055Z,16.90
2018-06-17T05:51:26.736Z,16.90
2018-06-17T05:53:55.407Z,16.90
2018-06-17T05:56:24.069Z,16.80
2018-06-17T05:58:53.159Z,16.80
2018-06-17T06:01:21.826Z,16.80
2018-06-17T06:03:50.605Z,16.90
2018-06-17T06:06:19.350Z,17.00
2018-06-17T06:08:48.105Z,17.00
2018-06-17T06:11:16.817Z,17.00
2018-06-17T06:13:45.436Z,17.10
2018-06-17T06:16:14.071Z,17.30
2018-06-17T06:18:42.671Z,17.30
2018-06-17T06:23:39.574Z,17.30
2018-06-17T06:26:08.203Z,17.30
2018-06-17T06:28:36.879Z,17.40
2018-06-17T06:31:05.545Z,17.50
2018-06-17T06:33:34.155Z,17.60
2018-06-17T06:36:02.771Z,17.60
2018-06-17T06:38:31.407Z,17.60
2018-06-17T06:41:00.037Z,17.70
2018-06-17T06:43:28.714Z,17.90
2018-06-17T06:45:57.376Z,18.00
2018-06-17T06:48:26.020Z,18.30
2018-06-17T06:50:54.757Z,18.40
2018-06-17T06:53:23.349Z,18.40
2018-06-17T06:55:52.043Z,18.40
2018-06-17T06:58:20.657Z,18.30
2018-06-17T07:00:49.542Z,18.30
2018-06-17T07:03:29.386Z,18.30
2018-06-17T07:06:09.370Z,18.20
2018-06-17T07:08:49.246Z,18.20
2018-06-17T07:11:18.561Z,18.20
2018-06-17T07:13:47.179Z,18.10
2018-06-17T07:16:26.941Z,18.20
2018-06-17T07:18:55.911Z,18.40
2018-06-17T07:21:24.609Z,18.70
2018-06-17T07:23:53.303Z,18.70
2018-06-17T07:26:35.581Z,18.70
2018-06-17T07:29:15.714Z,18.70
2018-06-17T07:31:44.385Z,18.80
2018-06-17T07:34:13.884Z,18.70
2018-06-17T07:36:42.890Z,18.60
2018-06-17T07:40:25.340Z,18.50
2018-06-17T07:42:53.964Z,18.60
2018-06-17T07:45:22.708Z,18.60
2018-06-17T07:47:51.405Z,18.70
2018-06-17T07:50:31.151Z,18.60
2018-06-17T07:53:15.838Z,18.80
2018-06-17T07:55:44.459Z,19.00
2018-06-17T07:58:13.922Z,19.00
2018-06-17T08:00:42.903Z,19.10
2018-06-17T08:03:11.705Z,19.10
2018-06-17T08:05:40.315Z,19.10
2018-06-17T08:08:09.000Z,18.80
2018-06-17T08:10:37.675Z,18.80
2018-06-17T08:13:06.330Z,18.80
2018-06-17T08:15:34.916Z,18.90
2018-06-17T08:18:03.592Z,18.90
2018-06-17T08:20:32.218Z,18.90
2018-06-17T08:23:00.829Z,18.90
2018-06-17T08:25:29.526Z,19.00
2018-06-17T08:27:58.182Z,19.10
2018-06-17T08:30:26.857Z,19.10
2018-06-17T08:32:55.492Z,19.20
2018-06-17T08:35:24.188Z,19.20
2018-06-17T08:37:52.860Z,19.30
2018-06-17T08:40:21.551Z,19.40
2018-06-17T08:42:50.175Z,19.40
2018-06-17T08:45:18.830Z,19.30
2018-06-17T08:47:47.537Z,19.30
2018-06-17T08:50:16.201Z,19.20
2018-06-17T08:52:44.826Z,19.30
2018-06-17T08:55:13.472Z,19.40
2018-06-17T08:57:42.072Z,19.40
2018-06-17T09:00:10.791Z,19.50
2018-06-17T09:02:39.390Z,19.40
2018-06-17T09:05:08.061Z,19.60
2018-06-17T09:07:36.680Z,19.60
2018-06-17T09:10:05.475Z,19.70
2018-06-17T09:12:34.082Z,19.70
2018-06-17T09:15:02.688Z,19.70
2018-06-17T09:17:31.352Z,19.70
2018-06-17T09:20:00.028Z,19.70
2018-06-17T09:22:28.656Z,19.60
2018-06-17T09:24:57.294Z,19.60
2018-06-17T09:27:25.994Z,19.50
2018-06-17T09:29:54.640Z,19.40
2018-06-17T09:32:23.359Z,19.50
2018-06-17T09:34:52.107Z,19.50
2018-06-17T09:37:20.716Z,19.70
2018-06-17T09:42:17.702Z,20.00
2018-06-17T09:44:46.344Z,20.00
2018-06-17T09:47:14.938Z,19.90
2018-06-17T09:49:43.571Z,20.00
2018-06-17T09:52:12.325Z,20.00
2018-06-17T09:54:40.979Z,20.00
2018-06-17T09:57:09.562Z,20.10
2018-06-17T09:59:38.201Z,20.30
2018-06-17T10:02:06.845Z,20.30
2018-06-17T10:04:35.489Z,20.30
2018-06-17T10:07:04.125Z,20.20
2018-06-17T10:09:35.841Z,20.10
2018-06-17T10:12:04.500Z,20.10
2018-06-17T10:14:33.137Z,20.00
2018-06-17T10:17:01.839Z,20.00
2018-06-17T10:19:30.429Z,20.00
2018-06-17T10:21:59.085Z,20.10
2018-06-17T10:24:27.724Z,20.20
2018-06-17T10:26:56.388Z,20.30
2018-06-17T10:29:25.122Z,20.50
2018-06-17T10:31:53.928Z,20.60
2018-06-17T10:34:22.643Z,20.50
2018-06-17T10:36:51.298Z,20.40
2018-06-17T10:39:19.962Z,20.40
2018-06-17T10:41:48.657Z,20.40
2018-06-17T10:44:17.329Z,20.50
2018-06-17T10:46:46.009Z,20.50
2018-06-17T10:49:14.675Z,20.50
2018-06-17T10:51:44.283Z,20.50
2018-06-17T10:54:12.905Z,20.50
2018-06-17T10:56:41.540Z,20.50
2018-06-17T10:59:10.161Z,20.50
2018-06-17T11:01:38.871Z,20.50
2018-06-17T11:04:07.485Z,20.70
2018-06-17T11:06:36.198Z,20.90
2018-06-17T11:09:06.636Z,21.10
2018-06-17T11:11:35.292Z,21.10
2018-06-17T11:14:03.913Z,21.10
2018-06-17T11:16:32.604Z,20.90
2018-06-17T11:19:01.811Z,20.80
2018-06-17T11:21:30.474Z,20.70
2018-06-17T11:23:59.186Z,20.60
2018-06-17T11:26:27.863Z,20.70
2018-06-17T11:28:56.483Z,20.70
2018-06-17T11:31:25.123Z,20.70
2018-06-17T11:33:53.821Z,20.60
2018-06-17T11:36:22.454Z,20.60
2018-06-17T11:38:51.205Z,20.60
2018-06-17T11:41:20.595Z,20.60
2018-06-17T11:43:49.273Z,20.60
2018-06-17T11:46:17.955Z,20.60
2018-06-17T11:48:46.802Z,20.50
2018-06-17T11:51:15.439Z,20.60
2018-06-17T11:53:44.088Z,20.60
2018-06-17T11:56:12.780Z,20.50
2018-06-17T11:58:41.409Z,20.40
2018-06-17T12:01:10.084Z,20.20
2018-06-17T12:03:38.974Z,20.00
2018-06-17T12:06:07.632Z,19.90
2018-06-17T12:08:36.274Z,19.80
2018-06-17T12:11:04.886Z,19.70
2018-06-17T12:13:33.490Z,19.80
2018-06-17T12:16:02.151Z,19.80
2018-06-17T12:18:31.470Z,20.00
2018-06-17T12:21:00.277Z,20.00
2018-06-17T12:25:57.993Z,20.20
2018-06-17T12:28:26.703Z,20.20
2018-06-17T12:30:55.353Z,20.30
2018-06-17T12:33:24.095Z,20.40
2018-06-17T12:35:52.819Z,20.40
2018-06-17T12:38:21.453Z,20.40
2018-06-17T12:40:50.108Z,20.60
2018-06-17T12:43:18.795Z,20.70
2018-06-17T12:45:47.762Z,20.90
2018-06-17T12:48:16.392Z,21.00
2018-06-17T12:50:45.120Z,21.10
2018-06-17T12:53:13.824Z,21.30
2018-06-17T12:55:42.532Z,21.40
2018-06-17T12:58:11.294Z,21.30
2018-06-17T13:00:39.958Z,21.20
2018-06-17T13:03:08.569Z,21.20
2018-06-17T13:05:37.281Z,20.90
2018-06-17T13:08:06.190Z,20.80
2018-06-17T13:10:34.877Z,20.60
2018-06-17T13:13:03.625Z,20.40
2018-06-17T13:15:32.313Z,20.20
2018-06-17T13:18:01.070Z,20.10
2018-06-17T13:20:29.739Z,20.00
2018-06-17T13:22:58.387Z,20.00
2018-06-17T13:25:27.025Z,20.00
2018-06-17T13:27:55.718Z,20.00
2018-06-17T13:30:24.370Z,20.00
2018-06-17T13:32:53.035Z,19.90
2018-06-17T13:35:24.106Z,19.90
2018-06-17T13:37:54.634Z,19.70
2018-06-17T13:40:29.493Z,19.70
2018-06-17T13:43:00.185Z,19.60
2018-06-17T13:45:29.171Z,19.50
2018-06-17T13:50:26.098Z,19.50
2018-06-17T13:52:56.756Z,19.60
2018-06-17T13:55:26.737Z,19.70
2018-06-17T13:57:55.540Z,19.80
2018-06-17T14:00:24.371Z,19.90
2018-06-17T14:02:53.142Z,19.90
2018-06-17T14:05:22.230Z,20.00
2018-06-17T14:07:51.046Z,19.90
2018-06-17T14:10:19.919Z,19.90
2018-06-17T14:12:49.321Z,19.90
2018-06-17T14:15:18.559Z,19.90
2018-06-17T14:17:47.272Z,20.00
2018-06-17T14:20:16.068Z,20.00
2018-06-17T14:22:45.003Z,20.10
2018-06-17T14:25:13.756Z,20.20
2018-06-17T14:27:42.896Z,20.30
2018-06-17T14:30:11.677Z,20.60
2018-06-17T14:32:40.503Z,20.80
2018-06-17T14:37:37.691Z,21.00
2018-06-17T14:40:06.997Z,21.10
2018-06-17T14:42:40.945Z,21.00
2018-06-17T14:45:15.185Z,21.00
2018-06-17T14:47:50.154Z,21.10
2018-06-17T14:50:25.456Z,21.10
2018-06-17T14:52:59.518Z,21.00
2018-06-17T14:55:29.102Z,20.80
2018-06-17T14:57:57.912Z,20.80
2018-06-17T15:00:26.936Z,20.60
2018-06-17T15:02:55.842Z,20.50
2018-06-17T15:05:24.576Z,20.50
2018-06-17T15:07:53.476Z,20.60
2018-06-17T15:10:22.239Z,20.60
2018-06-17T15:12:50.994Z,20.80
2018-06-17T15:15:19.781Z,21.00
2018-06-17T15:17:48.619Z,21.20
2018-06-17T15:20:18.313Z,21.40
2018-06-17T15:22:47.082Z,21.60
2018-06-17T15:25:15.830Z,21.60
2018-06-17T15:27:44.598Z,21.40
2018-06-17T15:30:13.820Z,21.20
2018-06-17T15:32:47.981Z,21.10
2018-06-17T15:35:22.058Z,20.90
2018-06-17T15:37:56.418Z,20.60
2018-06-17T15:43:09.781Z,20.20
2018-06-17T15:45:38.664Z,20.10
2018-06-17T15:48:08.201Z,20.10
2018-06-17T15:50:37.165Z,20.10
2018-06-17T15:53:06.220Z,20.00
2018-06-17T15:55:34.986Z,20.00
2018-06-17T15:58:03.776Z,20.00
2018-06-17T16:00:32.686Z,19.90
2018-06-17T16:03:02.697Z,19.70
2018-06-17T16:05:31.794Z,19.20
2018-06-17T16:08:00.605Z,18.70
2018-06-17T16:10:29.425Z,18.40
2018-06-17T16:13:03.617Z,18.00
2018-06-17T16:15:39.553Z,17.70
2018-06-17T16:18:14.433Z,17.50
2018-06-17T16:21:02.623Z,17.40
2018-06-17T16:23:32.687Z,17.30
2018-06-17T16:26:01.999Z,17.10
2018-06-17T16:28:30.792Z,17.10
2018-06-17T16:30:59.991Z,17.10
2018-06-17T16:33:28.904Z,17.20
2018-06-17T16:35:58.104Z,17.20
2018-06-17T16:38:26.919Z,17.20
2018-06-17T16:40:55.614Z,17.00
2018-06-17T16:43:24.566Z,16.90
2018-06-17T16:45:53.369Z,16.90
2018-06-17T16:48:22.123Z,16.80
2018-06-17T16:50:56.181Z,16.80
2018-06-17T16:53:30.151Z,17.00
2018-06-17T16:56:04.231Z,17.00
2018-06-17T16:58:38.198Z,17.10
2018-06-17T17:01:07.019Z,17.10
2018-06-17T17:03:35.738Z,17.20
2018-06-17T17:06:04.510Z,17.20
2018-06-17T17:08:33.591Z,17.20
2018-06-17T17:11:02.322Z,17.10
2018-06-17T17:13:31.046Z,17.30
2018-06-17T17:15:59.852Z,17.40
2018-06-17T17:18:28.606Z,17.40
2018-06-17T17:21:00.682Z,17.50
2018-06-17T17:23:29.550Z,17.50
2018-06-17T17:25:58.618Z,17.50
2018-06-17T17:28:28.517Z,17.60
2018-06-17T17:30:57.292Z,17.60
2018-06-17T17:33:31.309Z,17.60
2018-06-17T17:36:05.330Z,17.60
2018-06-17T17:38:40.057Z,17.70
2018-06-17T17:41:08.815Z,17.60
2018-06-17T17:43:39.939Z,17.70
2018-06-17T17:46:13.975Z,17.70
2018-06-17T17:48:43.611Z,17.70
2018-06-17T17:51:12.378Z,17.70
2018-06-17T17:53:41.840Z,17.60
2018-06-17T17:56:10.666Z,17.60
2018-06-17T17:58:40.260Z,17.50
2018-06-17T18:01:09.022Z,17.50
2018-06-17T18:03:37.854Z,17.50
2018-06-17T18:06:06.977Z,17.50
2018-06-17T18:08:35.761Z,17.60
2018-06-17T18:11:04.553Z,17.60
2018-06-17T18:13:33.890Z,17.60
2018-06-17T18:16:02.669Z,17.60
2018-06-17T18:18:31.476Z,17.60
2018-06-17T18:21:00.270Z,17.60
2018-06-17T18:23:29.032Z,17.60
2018-06-17T18:26:03.165Z,17.60
2018-06-17T18:28:37.324Z,17.60
2018-06-17T18:31:06.466Z,17.60
2018-06-17T18:33:40.577Z,17.60
2018-06-17T18:36:14.990Z,17.70
2018-06-17T18:38:45.939Z,17.70
2018-06-17T18:41:15.658Z,17.70
2018-06-17T18:43:44.429Z,17.70
2018-06-17T18:46:14.283Z,17.70
2018-06-17T18:48:43.910Z,17.70
2018-06-17T18:51:12.620Z,17.60
2018-06-17T18:53:41.300Z,17.70
2018-06-17T18:56:10.110Z,17.70
2018-06-17T18:58:38.870Z,17.70
2018-06-17T19:01:07.552Z,17.70
2018-06-17T19:03:36.299Z,17.70
2018-06-17T19:06:05.057Z,17.70
2018-06-17T19:08:38.975Z,17.80
2018-06-17T19:11:13.064Z,17.70
2018-06-17T19:13:47.995Z,17.70
2018-06-17T19:16:23.377Z,17.70
2018-06-17T19:18:54.426Z,17.70
2018-06-17T19:21:23.091Z,17.70
2018-06-17T19:23:51.917Z,17.70
2018-06-17T19:26:20.575Z,17.70
2018-06-17T19:28:49.354Z,17.70
2018-06-17T19:31:18.036Z,17.70
2018-06-17T19:33:46.738Z,17.70
2018-06-17T19:36:15.431Z,17.70
2018-06-17T19:38:44.074Z,17.70
2018-06-17T19:41:12.760Z,17.60
2018-06-17T19:43:41.517Z,17.60
2018-06-17T19:46:10.173Z,17.60
2018-06-17T19:48:38.904Z,17.50
2018-06-17T19:52:14.418Z,17.50
2018-06-17T19:54:48.187Z,17.50
2018-06-17T19:57:22.235Z,17.50
2018-06-17T19:59:56.141Z,17.50
2018-06-17T20:02:24.836Z,17.50
2018-06-17T20:04:54.437Z,17.50
2018-06-17T20:07:23.144Z,17.50
2018-06-17T20:09:51.800Z,17.50
2018-06-17T20:12:20.544Z,17.50
2018-06-17T20:14:49.197Z,17.50
2018-06-17T20:17:17.855Z,17.50
2018-06-17T20:22:14.849Z,17.50
2018-06-17T20:24:43.497Z,17.50
2018-06-17T20:27:12.219Z,17.60
2018-06-17T20:29:40.976Z,17.60
2018-06-17T20:32:14.954Z,17.60
2018-06-17T20:34:48.951Z,17.60
2018-06-17T20:38:24.496Z,17.60
2018-06-17T20:40:58.535Z,17.60
2018-06-17T20:43:32.530Z,17.50
2018-06-17T20:46:01.827Z,17.50
2018-06-17T20:48:30.581Z,17.50
2018-06-17T20:50:59.259Z,17.50
2018-06-17T20:53:27.947Z,17.50
2018-06-17T20:55:56.651Z,17.50
2018-06-17T20:58:25.450Z,17.50
2018-06-17T21:00:54.131Z,17.50
2018-06-17T21:03:22.890Z,17.50
2018-06-17T21:05:51.690Z,17.50
2018-06-17T21:08:20.373Z,17.50
2018-06-17T21:13:17.431Z,17.50
2018-06-17T21:15:46.121Z,17.40
2018-06-17T21:18:19.037Z,17.40
2018-06-17T21:20:53.031Z,17.30
2018-06-17T21:23:26.930Z,17.30
2018-06-17T21:26:00.783Z,17.30
2018-06-17T21:28:29.465Z,17.30
2018-06-17T21:30:58.113Z,17.30
2018-06-17T21:33:26.781Z,17.30
2018-06-17T21:35:55.481Z,17.30
2018-06-17T21:38:24.088Z,17.40
2018-06-17T21:40:52.719Z,17.40
2018-06-17T21:43:21.377Z,17.30
2018-06-17T21:45:50.040Z,17.30
2018-06-17T21:48:18.654Z,17.30
2018-06-17T21:50:47.316Z,17.30
2018-06-17T21:53:16.021Z,17.30
2018-06-17T21:55:44.680Z,17.30
2018-06-17T21:58:17.556Z,17.30
2018-06-17T22:00:46.186Z,17.20
2018-06-17T22:03:14.822Z,17.20
2018-06-17T22:05:43.502Z,17.20
2018-06-17T22:08:17.484Z,17.20
2018-06-17T22:10:51.490Z,17.20
2018-06-17T22:13:20.238Z,17.30
2018-06-17T22:15:54.169Z,17.20
2018-06-17T22:18:22.995Z,17.20
2018-06-17T22:20:51.741Z,17.10
2018-06-17T22:23:20.363Z,17.10
2018-06-17T22:25:49.025Z,17.10
2018-06-17T22:28:17.726Z,17.10
2018-06-17T22:30:46.429Z,17.10
2018-06-17T22:33:15.096Z,17.10
2018-06-17T22:35:43.772Z,17.00
2018-06-17T22:38:12.538Z,17.00
2018-06-17T22:40:41.272Z,17.00
2018-06-17T22:43:09.954Z,17.00
2018-06-17T22:45:38.682Z,17.00
2018-06-17T22:48:07.343Z,17.00
2018-06-17T22:50:36.038Z,17.00
2018-06-17T22:53:15.900Z,17.00
2018-06-17T22:55:44.558Z,16.90
2018-06-17T22:58:18.426Z,16.90
2018-06-17T23:00:52.333Z,16.90
2018-06-17T23:03:26.331Z,16.90
2018-06-17T23:06:00.305Z,16.90
2018-06-17T23:08:34.950Z,16.90
2018-06-17T23:11:03.651Z,16.90
2018-06-17T23:13:32.350Z,16.90
2018-06-17T23:16:01.023Z,16.90
2018-06-17T23:18:31.120Z,16.80
2018-06-17T23:21:00.143Z,16.80
2018-06-17T23:23:28.872Z,16.80
2018-06-17T23:25:57.598Z,16.80
2018-06-17T23:28:26.360Z,16.80
2018-06-17T23:30:55.098Z,16.80
2018-06-17T23:33:23.776Z,16.80
2018-06-17T23:35:52.459Z,16.90
2018-06-17T23:38:21.474Z,16.90
2018-06-17T23:40:50.201Z,16.90
2018-06-17T23:43:18.928Z,16.90
2018-06-17T23:45:52.931Z,16.90
2018-06-17T23:48:26.969Z,17.00
2018-06-17T23:51:00.991Z,16.90
2018-06-17T23:53:34.889Z,17.00
2018-06-17T23:56:07.207Z,16.90
2018-06-17T23:58:36.303Z,17.00
